Time;durP1;ratioP1;P1;durP2;ratioP2;P2;SDS_P1;SDS_P2;PMS_P1;PMS_P2;Temp;Humidity;BMP_temperature;BMP_pressure;BME280_temperature;BME280_humidity;BME280_pressure;Samples;Min_cycle;Max_cycle;Signal;HPM_P1;HPM_P2
2022/03/19 00:02:19;;;;;;;54.10;44.90;;;6.10;99.90;;;;;;6091064;23;20188;-78
2022/03/19 00:04:46;;;;;;;58.30;45.85;;;6.10;99.90;;;;;;6107724;23;20194;-78
2022/03/19 00:07:13;;;;;;;54.78;44.15;;;6.10;99.90;;;;;;6105982;23;20188;-77
2022/03/19 00:09:40;;;;;;;53.70;44.38;;;6.10;99.90;;;;;;6104781;23;20188;-78
2022/03/19 00:12:08;;;;;;;51.78;43.55;;;6.00;99.90;;;;;;6091414;23;20220;-78
2022/03/19 00:14:35;;;;;;;51.85;44.33;;;6.00;99.90;;;;;;6103700;23;20190;-78
2022/03/19 00:17:03;;;;;;;49.65;42.33;;;6.00;99.90;;;;;;6091442;23;20188;-78
2022/03/19 00:19:30;;;;;;;49.88;42.55;;;6.00;99.90;;;;;;6104243;23;20190;-78
2022/03/19 00:21:57;;;;;;;51.13;41.28;;;6.00;99.90;;;;;;6095292;23;20914;-78
2022/03/19 00:24:25;;;;;;;54.53;45.42;;;6.00;99.90;;;;;;6110576;23;20282;-78
2022/03/19 00:26:51;;;;;;;52.97;44.10;;;6.00;99.90;;;;;;6119576;23;20237;-78
2022/03/19 00:29:18;;;;;;;53.22;43.35;;;5.90;99.90;;;;;;6101914;23;20287;-78
2022/03/19 00:31:45;;;;;;;52.72;43.97;;;5.90;99.90;;;;;;6114662;23;20226;-78
2022/03/19 00:34:13;;;;;;;54.63;42.45;;;6.00;99.90;;;;;;6110554;23;20617;-78
2022/03/19 00:36:40;;;;;;;48.60;42.95;;;5.90;99.90;;;;;;6109887;23;20296;-78
2022/03/19 00:39:07;;;;;;;50.88;43.65;;;5.90;99.90;;;;;;6095005;23;20208;-77
2022/03/19 00:41:34;;;;;;;51.60;42.58;;;5.90;99.90;;;;;;6105507;23;20192;-77
2022/03/19 00:44:01;;;;;;;52.85;42.70;;;5.80;99.90;;;;;;6102574;23;20188;-78
2022/03/19 00:46:28;;;;;;;50.78;43.30;;;5.80;99.90;;;;;;6105164;23;20794;-78
2022/03/19 00:48:55;;;;;;;52.72;45.00;;;5.80;99.90;;;;;;6092505;23;20212;-78
2022/03/19 00:51:23;;;;;;;50.17;41.65;;;5.80;99.90;;;;;;6098681;23;20194;-78
2022/03/19 00:53:50;;;;;;;49.40;41.53;;;5.80;99.90;;;;;;6094120;23;20267;-78
2022/03/19 00:56:18;;;;;;;53.33;42.00;;;5.80;99.90;;;;;;6090245;23;20574;-79
2022/03/19 00:58:45;;;;;;;46.28;40.13;;;5.80;99.90;;;;;;6098299;23;20210;-78
2022/03/19 01:01:12;;;;;;;50.33;41.13;;;5.70;99.90;;;;;;6110414;23;20528;-78
2022/03/19 01:03:39;;;;;;;52.97;44.20;;;5.80;99.90;;;;;;6117675;23;20191;-78
2022/03/19 01:06:06;;;;;;;54.97;42.30;;;5.80;99.90;;;;;;6103411;23;20267;-78
2022/03/19 01:08:34;;;;;;;52.08;43.60;;;5.80;99.90;;;;;;6097360;23;20201;-78
2022/03/19 01:11:01;;;;;;;53.63;42.85;;;5.80;99.90;;;;;;6103945;23;20194;-78
2022/03/19 01:13:28;;;;;;;49.10;41.75;;;5.80;99.90;;;;;;6093627;23;20220;-78
2022/03/19 01:15:55;;;;;;;47.47;40.10;;;5.80;99.90;;;;;;6094762;23;20196;-78
2022/03/19 01:18:22;;;;;;;50.60;42.13;;;5.80;99.90;;;;;;6092828;23;20211;-78
2022/03/19 01:20:49;;;;;;;53.45;41.25;;;5.70;99.90;;;;;;6119019;23;20266;-78
2022/03/19 01:23:16;;;;;;;45.00;39.30;;;5.70;99.90;;;;;;6098955;23;20576;-78
2022/03/19 01:25:44;;;;;;;44.25;39.45;;;5.80;99.90;;;;;;6100215;23;20590;-78
2022/03/19 01:28:11;;;;;;;47.10;41.22;;;5.80;99.90;;;;;;6092493;23;20278;-78
2022/03/19 01:30:38;;;;;;;48.38;42.88;;;5.70;99.90;;;;;;6102538;23;20712;-78
2022/03/19 01:33:05;;;;;;;48.25;39.97;;;5.80;99.90;;;;;;6092236;23;20211;-78
2022/03/19 01:35:32;;;;;;;47.30;40.58;;;5.70;99.90;;;;;;6107326;23;20656;-78
2022/03/19 01:37:59;;;;;;;47.15;40.08;;;5.80;99.90;;;;;;6119660;23;20295;-77
2022/03/19 01:40:26;;;;;;;46.90;39.90;;;5.70;99.90;;;;;;6091625;23;20674;-78
2022/03/19 01:42:57;;;;;;;47.97;40.90;;;5.70;99.90;;;;;;6112013;23;20720;-78
2022/03/19 01:45:25;;;;;;;48.60;41.05;;;5.70;99.90;;;;;;6108714;23;20186;-78
2022/03/19 01:47:53;;;;;;;46.03;39.45;;;5.70;99.90;;;;;;6118697;23;20208;-78
2022/03/19 01:50:22;;;;;;;47.40;39.55;;;5.70;99.90;;;;;;6098186;23;20218;-78
2022/03/19 01:52:50;;;;;;;44.72;38.00;;;5.70;99.90;;;;;;6117385;23;20261;-78
2022/03/19 01:55:22;;;;;;;46.08;40.20;;;5.70;99.90;;;;;;6117506;23;20226;-78
2022/03/19 01:57:51;;;;;;;46.15;37.95;;;5.70;99.90;;;;;;6118997;23;20278;-78
2022/03/19 02:00:22;;;;;;;46.03;38.75;;;5.80;99.90;;;;;;6092590;23;20275;-78
2022/03/19 02:02:50;;;;;;;42.05;36.28;;;5.80;99.90;;;;;;6093365;23;20250;-77
2022/03/19 02:05:18;;;;;;;50.55;38.45;;;5.70;99.90;;;;;;6106135;23;20539;-78
2022/03/19 02:07:46;;;;;;;45.67;37.65;;;5.80;99.90;;;;;;6105255;23;20212;-78
2022/03/19 02:10:15;;;;;;;45.17;38.92;;;5.80;99.90;;;;;;6095137;23;20270;-78
2022/03/19 02:12:44;;;;;;;44.45;39.65;;;5.80;99.90;;;;;;6106984;23;20216;-78
2022/03/19 02:15:13;;;;;;;45.22;38.20;;;5.80;99.90;;;;;;6108130;23;20216;-78
2022/03/19 02:17:41;;;;;;;43.65;38.58;;;5.80;99.90;;;;;;6092615;23;20208;-78
2022/03/19 02:20:09;;;;;;;43.70;37.47;;;5.80;99.90;;;;;;6094005;23;20571;-77
2022/03/19 02:22:36;;;;;;;43.75;38.75;;;5.80;99.90;;;;;;6105972;23;20188;-78
2022/03/19 02:27:51;;;;;;;44.65;38.28;;;5.80;99.90;;;;;;6092174;23;20598;-78
2022/03/19 02:30:18;;;;;;;45.40;37.97;;;5.80;99.90;;;;;;6100800;23;20229;-78
2022/03/19 02:32:49;;;;;;;42.60;37.28;;;5.80;99.90;;;;;;6120898;23;20234;-77
2022/03/19 02:35:18;;;;;;;44.15;38.95;;;5.80;99.90;;;;;;6100126;23;20226;-78
2022/03/19 02:37:46;;;;;;;46.20;39.47;;;5.70;99.90;;;;;;6101732;23;20309;-78
2022/03/19 02:40:17;;;;;;;44.15;38.97;;;5.70;99.90;;;;;;6102160;23;20272;-78
2022/03/19 02:42:46;;;;;;;45.90;38.90;;;5.70;99.90;;;;;;6096034;23;20195;-78
2022/03/19 02:45:13;;;;;;;43.55;36.75;;;5.80;99.90;;;;;;6098800;23;20282;-78
2022/03/19 02:50:22;;;;;;;43.45;38.25;;;5.80;99.90;;;;;;6095671;23;20274;-77
2022/03/19 02:52:48;;;;;;;45.25;37.90;;;5.80;99.90;;;;;;6107559;23;20211;-78
2022/03/19 02:55:17;;;;;;;43.53;36.70;;;5.70;99.90;;;;;;6098488;23;20710;-77
2022/03/19 02:57:44;;;;;;;43.10;36.78;;;5.70;99.90;;;;;;6110035;23;20212;-78
2022/03/19 03:00:11;;;;;;;44.45;38.15;;;5.70;99.90;;;;;;6103634;23;20587;-77
2022/03/19 03:02:38;;;;;;;42.78;36.30;;;5.70;99.90;;;;;;6098361;23;20215;-78
2022/03/19 03:05:06;;;;;;;41.38;36.10;;;5.60;99.90;;;;;;6113763;23;20262;-78
2022/03/19 03:07:33;;;;;;;42.92;37.58;;;5.60;99.90;;;;;;6094014;23;20235;-77
2022/03/19 03:10:00;;;;;;;44.03;37.78;;;5.60;99.90;;;;;;6093727;23;20191;-77
2022/03/19 03:12:29;;;;;;;42.92;37.55;;;5.60;99.90;;;;;;6105508;23;20239;-78
2022/03/19 03:14:56;;;;;;;48.40;38.42;;;5.60;99.90;;;;;;6098454;23;20188;-78
2022/03/19 03:17:23;;;;;;;47.65;38.40;;;5.60;99.90;;;;;;6090290;23;20208;-76
2022/03/19 03:19:51;;;;;;;46.53;36.00;;;5.60;99.90;;;;;;6092254;23;20263;-75
2022/03/19 03:22:18;;;;;;;44.13;37.70;;;5.50;99.90;;;;;;6093161;23;20246;-75
2022/03/19 03:24:45;;;;;;;43.70;36.85;;;5.50;99.90;;;;;;6097852;23;20187;-75
2022/03/19 03:27:12;;;;;;;43.15;38.40;;;5.50;99.90;;;;;;6115665;23;20237;-75
2022/03/19 03:29:41;;;;;;;42.50;36.72;;;5.50;99.90;;;;;;6115430;23;20188;-75
2022/03/19 03:32:09;;;;;;;42.72;36.67;;;5.40;99.90;;;;;;6099077;23;20188;-75
2022/03/19 03:34:36;;;;;;;42.90;36.75;;;5.50;99.90;;;;;;6093250;23;20188;-75
2022/03/19 03:37:03;;;;;;;42.67;37.35;;;5.40;99.90;;;;;;6107260;23;20203;-75
2022/03/19 03:39:30;;;;;;;40.70;35.50;;;5.40;99.90;;;;;;6116594;23;20183;-76
2022/03/19 03:41:57;;;;;;;43.70;36.20;;;5.50;99.90;;;;;;6103704;23;20196;-75
2022/03/19 03:44:24;;;;;;;40.63;35.95;;;5.40;99.90;;;;;;6102925;23;20188;-77
2022/03/19 03:46:52;;;;;;;43.22;36.35;;;5.50;99.90;;;;;;6118677;23;20209;-77
2022/03/19 03:49:19;;;;;;;43.92;37.47;;;5.40;99.90;;;;;;6102304;23;20303;-77
2022/03/19 03:51:47;;;;;;;43.88;37.72;;;5.40;99.90;;;;;;6109460;23;20596;-77
2022/03/19 03:54:14;;;;;;;45.50;38.17;;;5.40;99.90;;;;;;6100807;23;20722;-78
2022/03/19 03:56:40;;;;;;;41.63;36.35;;;5.40;99.90;;;;;;6107621;23;20207;-78
2022/03/19 03:59:07;;;;;;;43.13;34.72;;;5.40;99.90;;;;;;6096788;23;20262;-77
2022/03/19 04:01:35;;;;;;;45.42;35.08;;;5.40;99.90;;;;;;6104039;23;20663;-78
2022/03/19 04:04:04;;;;;;;39.50;35.15;;;5.40;99.90;;;;;;6097619;23;20199;-77
2022/03/19 04:06:31;;;;;;;41.20;34.70;;;5.40;99.90;;;;;;6118079;23;20216;-77
2022/03/19 04:08:57;;;;;;;45.33;36.10;;;5.40;99.90;;;;;;6109251;23;20207;-77
2022/03/19 04:11:24;;;;;;;42.72;34.67;;;5.40;99.90;;;;;;6097548;23;20597;-77
2022/03/19 04:13:51;;;;;;;41.67;36.22;;;5.40;99.90;;;;;;6110882;23;20644;-77
2022/03/19 04:16:18;;;;;;;39.58;33.70;;;5.40;99.90;;;;;;6119026;23;20588;-77
2022/03/19 04:18:45;;;;;;;44.28;36.20;;;5.40;99.90;;;;;;6102159;23;20272;-78
2022/03/19 04:21:14;;;;;;;40.92;33.92;;;5.40;99.90;;;;;;6112782;23;20298;-77
2022/03/19 04:23:40;;;;;;;43.28;36.70;;;5.30;99.90;;;;;;6097720;23;20279;-77
2022/03/19 04:26:07;;;;;;;42.88;35.58;;;5.30;99.90;;;;;;6111257;23;20241;-77
2022/03/19 04:28:34;;;;;;;40.00;34.85;;;5.30;99.90;;;;;;6112149;23;20193;-77
2022/03/19 04:31:01;;;;;;;43.33;34.25;;;5.20;99.90;;;;;;6113986;23;20194;-77
2022/03/19 04:33:28;;;;;;;42.30;35.85;;;5.20;99.90;;;;;;6105118;23;20220;-77
2022/03/19 04:38:41;;;;;;;41.80;35.38;;;5.20;99.90;;;;;;6100342;23;20233;-77
2022/03/19 04:41:08;;;;;;;42.08;35.50;;;5.20;99.90;;;;;;6096569;23;20184;-77
2022/03/19 04:43:35;;;;;;;42.30;36.40;;;5.20;99.90;;;;;;6106846;23;20643;-78
2022/03/19 04:46:02;;;;;;;42.17;34.22;;;5.20;99.90;;;;;;6091749;23;20184;-77
2022/03/19 04:48:30;;;;;;;39.28;34.50;;;5.10;99.90;;;;;;6092687;23;20215;-76
2022/03/19 04:50:57;;;;;;;39.83;34.47;;;5.10;99.90;;;;;;6109892;23;20209;-78
2022/03/19 04:53:24;;;;;;;40.22;34.55;;;5.20;99.90;;;;;;6095207;23;20702;-77
2022/03/19 04:55:56;;;;;;;41.88;35.17;;;5.20;99.90;;;;;;6113539;23;20195;-78
2022/03/19 04:58:23;;;;;;;44.08;34.55;;;5.10;99.90;;;;;;6092759;23;20274;-77
2022/03/19 05:00:50;;;;;;;42.35;35.08;;;5.10;99.90;;;;;;6110267;23;20194;-77
2022/03/19 05:03:17;;;;;;;46.85;37.08;;;5.10;99.90;;;;;;6107308;23;20221;-77
2022/03/19 05:05:44;;;;;;;41.65;35.83;;;5.10;99.90;;;;;;6105305;23;20188;-78
2022/03/19 05:08:11;;;;;;;44.08;35.63;;;5.10;99.90;;;;;;6111891;23;20562;-77
2022/03/19 05:13:24;;;;;;;41.95;34.80;;;5.10;99.90;;;;;;6105909;23;20301;-77
2022/03/19 05:15:51;;;;;;;42.70;35.30;;;5.10;99.90;;;;;;6120769;23;20267;-77
2022/03/19 05:18:18;;;;;;;41.15;36.00;;;5.10;99.90;;;;;;6120594;23;20274;-77
2022/03/19 05:20:45;;;;;;;42.90;34.53;;;5.10;99.90;;;;;;6118978;23;20643;-78
2022/03/19 05:23:13;;;;;;;40.13;34.28;;;5.10;99.90;;;;;;6103972;23;20659;-77
2022/03/19 05:25:40;;;;;;;39.90;33.33;;;5.10;99.90;;;;;;6099616;23;20195;-77
2022/03/19 05:28:07;;;;;;;43.97;35.13;;;5.00;99.90;;;;;;6108869;23;20191;-77
2022/03/19 05:30:37;;;;;;;42.88;35.63;;;5.10;99.90;;;;;;6116600;23;20286;-76
2022/03/19 05:33:05;;;;;;;45.60;36.90;;;5.10;99.90;;;;;;6098783;23;20187;-77
2022/03/19 05:35:32;;;;;;;42.00;35.90;;;5.10;99.90;;;;;;6101597;23;20777;-77
2022/03/19 05:38:00;;;;;;;44.10;35.67;;;5.10;99.90;;;;;;6105758;23;20215;-77
2022/03/19 05:40:28;;;;;;;43.53;35.95;;;5.00;99.90;;;;;;6096804;23;20195;-77
2022/03/19 05:42:55;;;;;;;42.45;34.75;;;5.00;99.90;;;;;;6113093;23;20230;-77
2022/03/19 05:45:22;;;;;;;40.95;36.55;;;5.10;99.90;;;;;;6098617;23;20188;-77
2022/03/19 05:47:51;;;;;;;42.45;36.47;;;5.10;99.90;;;;;;6110728;23;20282;-77
2022/03/19 05:50:19;;;;;;;41.55;35.25;;;5.10;99.90;;;;;;6115938;23;20187;-77
2022/03/19 05:52:46;;;;;;;42.90;36.38;;;5.20;99.90;;;;;;6104736;23;20191;-78
2022/03/19 05:55:14;;;;;;;42.47;35.80;;;5.20;99.90;;;;;;6089884;23;20270;-77
2022/03/19 05:57:41;;;;;;;45.38;36.97;;;5.10;99.90;;;;;;6102473;23;20666;-77
2022/03/19 06:00:11;;;;;;;41.40;35.97;;;5.10;99.90;;;;;;6095600;23;20637;-78
2022/03/19 06:02:41;;;;;;;40.20;34.00;;;5.20;99.90;;;;;;6094867;23;20203;-78
2022/03/19 06:05:11;;;;;;;44.80;37.03;;;5.20;99.90;;;;;;6101704;23;20246;-78
2022/03/19 06:07:38;;;;;;;42.53;35.40;;;5.30;99.90;;;;;;6105085;23;20273;-75
2022/03/19 06:10:06;;;;;;;40.85;34.67;;;5.30;99.90;;;;;;6096107;23;20267;-75
2022/03/19 06:12:34;;;;;;;42.22;35.63;;;5.40;99.90;;;;;;6099803;23;20192;-76
2022/03/19 06:15:01;;;;;;;41.10;34.42;;;5.50;99.90;;;;;;6108662;23;20225;-74
2022/03/19 06:17:27;;;;;;;40.00;33.70;;;5.70;99.90;;;;;;6100524;23;20291;-74
2022/03/19 06:19:55;;;;;;;41.38;34.38;;;5.80;99.90;;;;;;6095418;23;20191;-74
2022/03/19 06:22:23;;;;;;;36.20;32.33;;;6.00;99.90;;;;;;6096638;23;20202;-77
2022/03/19 06:24:50;;;;;;;39.80;32.58;;;6.30;99.90;;;;;;6097398;23;20250;-76
2022/03/19 06:27:18;;;;;;;41.25;32.47;;;6.40;99.90;;;;;;6103148;23;20204;-74
2022/03/19 06:29:44;;;;;;;37.30;33.20;;;6.60;99.90;;;;;;6095853;23;20188;-75
2022/03/19 06:32:12;;;;;;;38.03;32.90;;;6.90;99.90;;;;;;6104995;23;20263;-75
2022/03/19 06:34:39;;;;;;;36.53;32.53;;;7.20;99.90;;;;;;6104079;23;20223;-75
2022/03/19 06:37:20;;;;;;;35.35;30.45;;;7.50;99.90;;;;;;6110230;23;20207;-76
2022/03/19 06:39:53;;;;;;;36.42;31.90;;;7.70;99.90;;;;;;6104656;23;20184;-76
2022/03/19 06:42:20;;;;;;;35.53;31.45;;;8.10;99.90;;;;;;6100937;23;20187;-77
2022/03/19 06:44:47;;;;;;;36.65;31.83;;;8.40;99.90;;;;;;6107336;23;20266;-76
2022/03/19 06:47:14;;;;;;;36.40;32.25;;;8.60;99.90;;;;;;6105182;23;20200;-76
2022/03/19 06:49:41;;;;;;;35.58;31.70;;;8.70;99.90;;;;;;6104952;23;20187;-76
2022/03/19 06:52:10;;;;;;;36.70;32.40;;;8.90;99.90;;;;;;6099426;23;20189;-79
2022/03/19 06:54:37;;;;;;;34.75;31.05;;;9.30;99.90;;;;;;6107082;23;20223;-76
2022/03/19 06:57:05;;;;;;;33.85;30.23;;;9.60;99.90;;;;;;6098264;23;20213;-76
2022/03/19 06:59:32;;;;;;;34.67;31.05;;;9.90;99.90;;;;;;6104931;23;20188;-76
2022/03/19 07:02:00;;;;;;;34.28;30.65;;;10.20;99.90;;;;;;6096960;23;20207;-77
2022/03/19 07:04:27;;;;;;;33.67;30.02;;;10.40;99.90;;;;;;6113006;23;20194;-76
2022/03/19 07:06:54;;;;;;;33.80;30.23;;;10.70;99.90;;;;;;6111809;23;20214;-76
2022/03/19 07:09:21;;;;;;;35.10;30.08;;;10.90;99.90;;;;;;6096237;23;20195;-77
2022/03/19 07:11:48;;;;;;;33.90;30.33;;;11.20;99.90;;;;;;6102584;23;20662;-76
2022/03/19 07:14:17;;;;;;;34.33;30.52;;;11.60;99.90;;;;;;6102642;23;20221;-77
2022/03/19 07:16:44;;;;;;;34.17;30.65;;;11.70;99.90;;;;;;6104575;23;20293;-76
2022/03/19 07:19:12;;;;;;;34.28;30.73;;;11.70;99.90;;;;;;6098467;23;20693;-77
2022/03/19 07:21:39;;;;;;;33.40;29.92;;;12.00;99.90;;;;;;6094584;23;20188;-75
2022/03/19 07:24:07;;;;;;;32.33;29.05;;;12.20;99.90;;;;;;6109172;23;20194;-75
2022/03/19 07:26:34;;;;;;;32.58;28.17;;;12.00;99.90;;;;;;6105423;23;20209;-75
2022/03/19 07:29:02;;;;;;;31.80;28.48;;;12.20;99.90;;;;;;6108299;23;20188;-78
2022/03/19 07:31:31;;;;;;;32.92;29.52;;;12.40;99.90;;;;;;6092354;23;20192;-78
2022/03/19 07:33:58;;;;;;;30.83;27.58;;;12.20;99.50;;;;;;6098717;23;20242;-76
2022/03/19 07:36:25;;;;;;;32.58;29.27;;;12.50;99.90;;;;;;6098418;23;20563;-76
2022/03/19 07:38:52;;;;;;;31.35;28.15;;;13.10;99.00;;;;;;6092430;23;20215;-76
2022/03/19 07:44:04;;;;;;;31.75;28.40;;;12.70;97.70;;;;;;6094450;23;20195;-75
2022/03/19 07:46:34;;;;;;;29.45;26.50;;;13.20;97.20;;;;;;6109518;23;20214;-76
2022/03/19 07:49:02;;;;;;;30.75;27.58;;;13.40;96.40;;;;;;6096413;23;20183;-77
2022/03/19 07:51:29;;;;;;;30.10;26.67;;;13.40;95.00;;;;;;6105450;23;20188;-77
2022/03/19 07:53:57;;;;;;;30.00;27.00;;;13.10;94.30;;;;;;6095653;23;20784;-76
2022/03/19 07:56:24;;;;;;;29.65;26.65;;;12.20;95.50;;;;;;6096519;23;20208;-78
2022/03/19 07:58:51;;;;;;;29.65;26.58;;;12.20;95.80;;;;;;6101466;23;20622;-79
2022/03/19 08:01:21;;;;;;;30.88;26.85;;;12.50;95.60;;;;;;6090254;23;20330;-75
2022/03/19 08:03:50;;;;;;;29.42;26.40;;;12.10;95.10;;;;;;6099631;23;20215;-74
2022/03/19 08:06:17;;;;;;;28.40;25.40;;;12.40;94.80;;;;;;6085994;23;20257;-75
2022/03/19 08:08:44;;;;;;;28.85;25.95;;;12.90;95.50;;;;;;6091851;23;20697;-74
2022/03/19 08:11:11;;;;;;;28.38;25.58;;;13.30;94.20;;;;;;6099292;23;20179;-75
2022/03/19 08:13:39;;;;;;;27.70;24.85;;;13.80;93.40;;;;;;6100151;23;20188;-75
2022/03/19 08:16:08;;;;;;;27.30;24.60;;;13.90;91.90;;;;;;6088404;23;20601;-78
2022/03/19 08:18:35;;;;;;;26.83;24.15;;;13.40;91.80;;;;;;6105543;23;20201;-76
2022/03/19 08:21:04;;;;;;;25.95;23.45;;;13.50;91.40;;;;;;6107825;23;21095;-75
2022/03/19 08:23:32;;;;;;;27.45;24.55;;;13.60;91.20;;;;;;6118191;23;20183;-76
2022/03/19 08:25:59;;;;;;;27.15;24.45;;;13.70;90.90;;;;;;6118485;23;20287;-76
2022/03/19 08:28:26;;;;;;;27.63;24.83;;;14.10;90.40;;;;;;6097041;23;20202;-76
2022/03/19 08:30:53;;;;;;;26.92;24.33;;;14.50;88.00;;;;;;6097516;23;20447;-76
2022/03/19 08:33:20;;;;;;;27.10;24.27;;;13.90;87.00;;;;;;6106698;23;20550;-76
2022/03/19 08:35:47;;;;;;;25.50;22.98;;;13.50;88.60;;;;;;6109118;23;20273;-76
2022/03/19 08:40:59;;;;;;;26.90;24.40;;;13.40;88.40;;;;;;6090326;23;20184;-76
2022/03/19 08:43:26;;;;;;;26.83;24.23;;;14.20;89.30;;;;;;6110129;23;20262;-76
2022/03/19 08:45:53;;;;;;;27.70;25.10;;;14.50;87.40;;;;;;6108233;23;20247;-76
2022/03/19 08:48:21;;;;;;;26.70;24.20;;;15.30;85.10;;;;;;6100311;23;20783;-76
2022/03/19 08:50:48;;;;;;;26.23;23.73;;;15.70;82.90;;;;;;6110112;23;20482;-76
2022/03/19 08:53:17;;;;;;;27.75;24.95;;;15.20;80.80;;;;;;6119252;23;20944;-76
2022/03/19 08:55:45;;;;;;;25.77;22.97;;;14.90;82.30;;;;;;6116577;23;20294;-76
2022/03/19 08:58:13;;;;;;;29.20;26.47;;;15.00;80.90;;;;;;6090923;23;20492;-76
2022/03/19 09:00:41;;;;;;;27.57;24.73;;;15.00;80.70;;;;;;6098751;23;20914;-76
2022/03/19 09:03:08;;;;;;;27.17;24.37;;;15.00;81.10;;;;;;6095147;23;20445;-76
2022/03/19 09:05:35;;;;;;;27.70;25.00;;;15.20;80.50;;;;;;6105051;23;20515;-80
2022/03/19 09:08:02;;;;;;;26.30;23.60;;;15.30;80.60;;;;;;6095428;23;20458;-79
2022/03/19 09:10:31;;;;;;;28.57;25.80;;;15.00;79.00;;;;;;6099971;23;20452;-79
2022/03/19 09:12:58;;;;;;;27.17;24.35;;;14.00;79.50;;;;;;6095585;23;20446;-75
2022/03/19 09:15:26;;;;;;;25.77;23.23;;;13.60;82.30;;;;;;6099696;23;20680;-75
2022/03/19 09:17:53;;;;;;;25.58;23.17;;;13.70;83.00;;;;;;6093670;23;20185;-76
2022/03/19 09:20:21;;;;;;;27.38;24.65;;;14.00;82.90;;;;;;6093950;23;20536;-76
2022/03/19 09:22:48;;;;;;;26.38;23.77;;;14.10;81.90;;;;;;6090862;23;20181;-77
2022/03/19 09:25:15;;;;;;;26.27;23.50;;;14.20;81.20;;;;;;6098989;23;20248;-77
2022/03/19 09:27:43;;;;;;;27.15;24.45;;;14.10;80.50;;;;;;6095724;23;20187;-78
2022/03/19 09:30:11;;;;;;;27.58;24.77;;;13.50;80.80;;;;;;6101962;23;20207;-78
2022/03/19 09:32:38;;;;;;;26.58;24.10;;;13.50;83.10;;;;;;6099939;23;20184;-75
2022/03/19 09:35:06;;;;;;;28.08;25.27;;;14.60;82.10;;;;;;6090867;23;20306;-76
2022/03/19 09:37:33;;;;;;;28.00;25.20;;;14.70;79.80;;;;;;6092831;23;20192;-76
2022/03/19 09:40:00;;;;;;;27.77;25.27;;;14.90;79.80;;;;;;6098181;23;20189;-76
2022/03/19 09:42:28;;;;;;;28.17;25.30;;;15.00;79.80;;;;;;6095583;23;20441;-76
2022/03/19 09:44:57;;;;;;;27.77;25.17;;;15.10;78.80;;;;;;6090121;23;20458;-75
2022/03/19 09:47:26;;;;;;;28.73;26.07;;;14.70;79.60;;;;;;6095770;23;20182;-76
2022/03/19 09:49:53;;;;;;;28.77;25.77;;;15.20;81.00;;;;;;6092821;23;20459;-76
2022/03/19 09:52:21;;;;;;;28.43;25.50;;;16.50;79.60;;;;;;6099142;23;20593;-76
2022/03/19 09:54:48;;;;;;;29.70;26.80;;;17.30;75.90;;;;;;6088119;23;20476;-76
2022/03/19 09:57:15;;;;;;;29.20;26.40;;;17.60;74.70;;;;;;6099671;23;20763;-77
2022/03/19 09:59:42;;;;;;;28.53;25.93;;;18.10;72.80;;;;;;6096028;23;20454;-76
2022/03/19 10:02:11;;;;;;;28.13;25.50;;;18.10;72.10;;;;;;6100005;23;20539;-76
2022/03/19 10:04:41;;;;;;;29.87;26.93;;;18.50;70.70;;;;;;6107577;23;20487;-76
2022/03/19 10:09:56;;;;;;;29.47;26.67;;;19.40;68.70;;;;;;6090049;23;20472;-77
2022/03/19 10:12:27;;;;;;;30.67;27.83;;;19.50;67.00;;;;;;6098406;23;21344;-76
2022/03/19 10:14:57;;;;;;;29.00;26.27;;;19.10;64.90;;;;;;6090486;23;20465;-75
2022/03/19 10:17:33;;;;;;;30.97;28.00;;;19.00;65.60;;;;;;6094529;23;20445;-75
2022/03/19 10:20:03;;;;;;;29.73;26.90;;;18.20;64.50;;;;;;6095800;23;20446;-76
2022/03/19 10:22:30;;;;;;;29.07;26.30;;;17.40;66.90;;;;;;6092834;23;20454;-77
2022/03/19 10:25:02;;;;;;;30.07;27.17;;;17.10;67.10;;;;;;6090246;23;20480;-77
2022/03/19 10:27:33;;;;;;;28.83;26.10;;;16.80;68.10;;;;;;6098473;23;20449;-77
2022/03/19 10:30:10;;;;;;;28.93;26.10;;;17.20;68.40;;;;;;6091966;23;20453;-77
2022/03/19 10:32:40;;;;;;;27.23;24.53;;;17.50;67.70;;;;;;6088460;23;20951;-78
2022/03/19 10:35:25;;;;;;;28.83;25.97;;;18.00;66.00;;;;;;6099285;23;20462;-77
2022/03/19 10:37:53;;;;;;;30.60;27.30;;;17.70;65.70;;;;;;6096157;23;20972;-77
2022/03/19 10:40:21;;;;;;;27.00;24.30;;;18.00;66.60;;;;;;6097824;23;20437;-77
2022/03/19 10:42:51;;;;;;;27.37;24.57;;;18.00;64.30;;;;;;6097675;23;20441;-78
2022/03/19 10:45:22;;;;;;;24.73;22.27;;;17.80;65.70;;;;;;6087822;23;20457;-77
2022/03/19 10:47:50;;;;;;;23.90;21.70;;;18.40;65.50;;;;;;6103538;23;21016;-78
2022/03/19 10:50:22;;;;;;;22.07;20.07;;;19.00;64.10;;;;;;6113258;23;20443;-78
2022/03/19 10:52:50;;;;;;;20.63;18.70;;;19.70;61.80;;;;;;6109880;23;20956;-77
2022/03/19 10:55:17;;;;;;;19.83;17.83;;;20.10;59.60;;;;;;6111317;23;20469;-75
2022/03/19 10:57:45;;;;;;;18.57;16.97;;;20.10;57.00;;;;;;6099899;23;20456;-75
2022/03/19 11:00:13;;;;;;;17.10;15.60;;;20.20;56.10;;;;;;6107625;23;20496;-77
2022/03/19 11:02:44;;;;;;;16.20;14.70;;;19.40;54.10;;;;;;6111981;23;20441;-77
2022/03/19 11:05:14;;;;;;;17.87;16.20;;;18.90;54.30;;;;;;6110909;23;20501;-77
2022/03/19 11:07:43;;;;;;;18.30;16.50;;;18.70;55.50;;;;;;6105386;23;20453;-76
2022/03/19 11:10:12;;;;;;;18.73;17.10;;;17.70;56.10;;;;;;6100303;23;21763;-73
2022/03/19 11:12:42;;;;;;;17.30;15.60;;;16.80;57.80;;;;;;6100292;23;20519;-77
2022/03/19 11:15:12;;;;;;;18.10;16.30;;;16.70;58.40;;;;;;6084668;23;20468;-85
2022/03/19 11:17:41;;;;;;;16.93;15.13;;;17.30;59.00;;;;;;6095850;23;20441;-78
2022/03/19 11:20:11;;;;;;;17.13;15.33;;;17.80;58.80;;;;;;6100379;23;20437;-80
2022/03/19 11:22:42;;;;;;;15.50;14.00;;;18.50;57.00;;;;;;6090321;23;20443;-79
2022/03/19 11:25:16;;;;;;;13.87;12.57;;;18.40;57.40;;;;;;6094078;23;20552;-80
2022/03/19 11:27:47;;;;;;;13.30;12.03;;;18.60;57.80;;;;;;6087636;23;20452;-79
2022/03/19 11:30:23;;;;;;;12.47;11.30;;;19.20;56.90;;;;;;6093699;23;20437;-80
2022/03/19 11:33:01;;;;;;;11.60;10.50;;;19.70;56.10;;;;;;6090919;23;21186;-79
2022/03/19 11:35:29;;;;;;;11.70;10.60;;;20.10;54.20;;;;;;6093845;23;20472;-79
2022/03/19 11:38:02;;;;;;;11.53;10.33;;;19.90;54.10;;;;;;6095073;23;20534;-79
2022/03/19 11:40:35;;;;;;;12.80;11.50;;;19.10;54.40;;;;;;6096248;23;20452;-78
2022/03/19 11:43:04;;;;;;;12.07;10.77;;;18.70;55.40;;;;;;6097071;23;20457;-77
2022/03/19 11:45:53;;;;;;;11.57;10.37;;;18.10;55.50;;;;;;6099180;23;20465;-79
2022/03/19 11:48:43;;;;;;;12.43;11.23;;;18.20;56.10;;;;;;6092237;23;20452;-79
2022/03/19 11:51:16;;;;;;;9.77;8.77;;;17.40;56.00;;;;;;6097236;23;21038;-79
2022/03/19 11:53:56;;;;;;;11.97;10.87;;;17.80;57.80;;;;;;6105312;23;20441;-79
2022/03/19 11:56:25;;;;;;;10.70;9.70;;;17.90;57.40;;;;;;6112750;23;20572;-79
2022/03/19 11:58:53;;;;;;;11.37;10.27;;;18.40;55.80;;;;;;6105171;23;20530;-79
2022/03/19 12:01:46;;;;;;;11.07;10.07;;;18.50;54.70;;;;;;6105299;23;20718;-80
2022/03/19 12:04:13;;;;;;;11.07;9.97;;;17.80;54.50;;;;;;6097721;23;20935;-78
2022/03/19 12:06:51;;;;;;;11.97;10.80;;;17.10;55.80;;;;;;6096484;23;21823;-78
2022/03/19 12:09:20;;;;;;;13.00;11.80;;;17.60;55.60;;;;;;6092414;23;20797;-77
2022/03/19 12:12:22;;;;;;;12.70;11.50;;;17.80;56.00;;;;;;6103610;23;20446;-78
2022/03/19 12:14:49;;;;;;;12.50;11.30;;;17.70;55.20;;;;;;6103061;23;20469;-78
2022/03/19 12:17:19;;;;;;;13.13;11.93;;;16.80;57.00;;;;;;6106502;23;20905;-78
2022/03/19 12:19:53;;;;;;;11.80;10.60;;;16.80;57.90;;;;;;6098863;23;20460;-78
2022/03/19 12:22:28;;;;;;;12.43;11.23;;;16.70;55.80;;;;;;6103957;23;20484;-78
2022/03/19 12:25:12;;;;;;;11.30;10.17;;;16.50;55.80;;;;;;6100401;23;20979;-78
2022/03/19 12:27:40;;;;;;;11.47;10.20;;;16.50;56.10;;;;;;6111628;23;20445;-78
2022/03/19 12:30:09;;;;;;;10.33;9.07;;;16.40;55.80;;;;;;6090202;23;20446;-78
2022/03/19 12:32:54;;;;;;;12.73;9.47;;;16.80;55.80;;;;;;6087773;23;20457;-78
2022/03/19 12:35:22;;;;;;;10.00;9.03;;;17.00;53.60;;;;;;6086714;23;20473;-78
2022/03/19 12:37:51;;;;;;;9.03;8.10;;;16.50;54.20;;;;;;6089313;23;20452;-78
2022/03/19 12:40:22;;;;;;;9.80;8.90;;;16.20;54.60;;;;;;6092920;23;20463;-78
2022/03/19 12:42:54;;;;;;;9.00;8.20;;;16.20;55.80;;;;;;6094334;23;20840;-79
2022/03/19 12:45:36;;;;;;;9.33;8.43;;;16.80;55.30;;;;;;6094057;23;20473;-78
2022/03/19 12:48:12;;;;;;;9.93;8.90;;;17.40;54.50;;;;;;6094048;23;20434;-79
2022/03/19 12:50:41;;;;;;;9.07;8.17;;;16.90;54.70;;;;;;6088284;23;20505;-79
2022/03/19 12:53:08;;;;;;;8.00;7.27;;;16.00;54.40;;;;;;6101691;23;20457;-79
2022/03/19 12:55:36;;;;;;;8.07;6.43;;;15.70;55.60;;;;;;6084310;23;20476;-78
2022/03/19 12:58:03;;;;;;;7.10;6.50;;;15.70;55.50;;;;;;6094370;23;20452;-78
2022/03/19 13:00:30;;;;;;;8.23;6.33;;;15.80;55.00;;;;;;6090273;23;20433;-79